Saint Marys, Indiana
Current Conditions -  °F | °C
As of 11:27 AM on Saturday 25 Oct 2014 (Local Time) from KSBN Reporting Station
Haze Haze  
Wind Chill: 60°   Ceiling: 800
Heat Index: 60°   Visibility: 5mi
Dew Point: 54°   Wind: 10mph
Humidity: 80%   Direction: 280°W
Pressure: 29.93"   Gusts: NA
Location:  41.7197°N, 86.2504°W
Report Text: KSBN 251527Z 28009KT 5SM HZ BKN008 OVC014 16/12 A2993 RMK AO2 T01560122
Loading
Personal Weather Stations






























Interactive Weather Map New forecast layout! Learn more

10-Day Weather Forecast

Advertisements
Track Severe Weather on mobile